Terminal Aerodrome Forecast
Issued by NWS Knoxville/Tri Cities, TN

Current Version | Previous Version | Text Only | Print | Product List | Glossary On
Versions: 1 2 3 4 5 6 7 8 9 10 11 12 13 14 15 16 17 18 19 20 21 22 23 24 25 26 27 28 29 30 31 32 33 34 35 36 37 38 39 40 41 42 43 44 45 46 47
000
FTUS44 KMRX 021725
TAFTYS
TAF
KTYS 021725Z 0218/0318 20010KT P6SM VCSH SCT015 BKN100
      TEMPO 0218/0220 4SM -SHRA BR SCT009 OVC020
     FM030100 22008KT P6SM VCTS SCT015CB BKN100
     FM030600 23008KT 6SM -SHRA BR VCTS SCT010 BKN020CB
     FM031600 23010KT P6SM VCTS SCT015CB BKN035=

USA.gov is the U.S. government's official web portal to all federal, state and local government web resources and services.